sensor_id;sensor_type;location;lat;lon;timestamp;P1;durP1;ratioP1;P2;durP2;ratioP2
38037;SDS011;23843;51.320;12.340;2023-04-03T00:00:05;3.87;;;1.20;;
38037;SDS011;23843;51.320;12.340;2023-04-03T00:02:31;1.13;;;0.90;;
38037;SDS011;23843;51.320;12.340;2023-04-03T00:04:58;2.87;;;1.17;;
38037;SDS011;23843;51.320;12.340;2023-04-03T00:07:23;3.67;;;1.60;;
38037;SDS011;23843;51.320;12.340;2023-04-03T00:09:49;3.87;;;1.20;;
38037;SDS011;23843;51.320;12.340;2023-04-03T00:12:14;2.33;;;1.07;;
38037;SDS011;23843;51.320;12.340;2023-04-03T00:14:40;3.13;;;1.20;;
38037;SDS011;23843;51.320;12.340;2023-04-03T00:17:05;6.70;;;1.40;;
38037;SDS011;23843;51.320;12.340;2023-04-03T00:19:31;4.03;;;1.53;;
38037;SDS011;23843;51.320;12.340;2023-04-03T00:21:58;4.63;;;1.40;;
38037;SDS011;23843;51.320;12.340;2023-04-03T00:24:23;5.33;;;1.43;;
38037;SDS011;23843;51.320;12.340;2023-04-03T00:26:49;3.97;;;1.33;;
38037;SDS011;23843;51.320;12.340;2023-04-03T00:29:15;4.97;;;1.40;;
38037;SDS011;23843;51.320;12.340;2023-04-03T00:31:40;6.77;;;1.77;;
38037;SDS011;23843;51.320;12.340;2023-04-03T00:34:05;3.53;;;1.30;;
38037;SDS011;23843;51.320;12.340;2023-04-03T00:36:31;5.77;;;1.70;;
38037;SDS011;23843;51.320;12.340;2023-04-03T00:38:58;3.80;;;1.30;;
38037;SDS011;23843;51.320;12.340;2023-04-03T00:41:23;8.70;;;2.20;;
38037;SDS011;23843;51.320;12.340;2023-04-03T00:43:49;4.37;;;1.47;;
38037;SDS011;23843;51.320;12.340;2023-04-03T00:46:14;3.27;;;1.17;;
38037;SDS011;23843;51.320;12.340;2023-04-03T00:48:41;3.80;;;1.30;;
38037;SDS011;23843;51.320;12.340;2023-04-03T00:51:09;4.00;;;1.20;;
38037;SDS011;23843;51.320;12.340;2023-04-03T00:53:39;3.90;;;1.40;;
38037;SDS011;23843;51.320;12.340;2023-04-03T00:56:10;3.30;;;1.03;;
38037;SDS011;23843;51.320;12.340;2023-04-03T00:58:39;3.20;;;1.20;;
38037;SDS011;23843;51.320;12.340;2023-04-03T01:01:10;5.03;;;1.13;;
38037;SDS011;23843;51.320;12.340;2023-04-03T01:03:40;3.37;;;1.33;;
38037;SDS011;23843;51.320;12.340;2023-04-03T01:06:05;5.73;;;1.80;;
38037;SDS011;23843;51.320;12.340;2023-04-03T01:08:31;3.90;;;1.30;;
38037;SDS011;23843;51.320;12.340;2023-04-03T01:10:57;5.07;;;1.30;;
38037;SDS011;23843;51.320;12.340;2023-04-03T01:13:25;7.20;;;1.40;;
38037;SDS011;23843;51.320;12.340;2023-04-03T01:15:53;4.53;;;1.57;;
38037;SDS011;23843;51.320;12.340;2023-04-03T01:18:19;4.07;;;1.70;;
38037;SDS011;23843;51.320;12.340;2023-04-03T01:21:05;5.50;;;1.50;;
38037;SDS011;23843;51.320;12.340;2023-04-03T01:23:56;4.70;;;1.40;;
38037;SDS011;23843;51.320;12.340;2023-04-03T01:26:28;4.27;;;1.40;;
38037;SDS011;23843;51.320;12.340;2023-04-03T01:28:55;4.50;;;1.27;;
38037;SDS011;23843;51.320;12.340;2023-04-03T01:31:24;4.00;;;1.27;;
38037;SDS011;23843;51.320;12.340;2023-04-03T01:33:53;5.33;;;1.40;;
38037;SDS011;23843;51.320;12.340;2023-04-03T01:36:20;3.43;;;1.27;;
38037;SDS011;23843;51.320;12.340;2023-04-03T01:38:47;4.77;;;1.50;;
38037;SDS011;23843;51.320;12.340;2023-04-03T01:41:13;2.40;;;1.17;;
38037;SDS011;23843;51.320;12.340;2023-04-03T01:43:39;3.40;;;1.23;;
38037;SDS011;23843;51.320;12.340;2023-04-03T01:46:04;3.80;;;1.20;;
38037;SDS011;23843;51.320;12.340;2023-04-03T01:48:30;3.73;;;1.43;;
38037;SDS011;23843;51.320;12.340;2023-04-03T01:50:56;4.77;;;1.20;;
38037;SDS011;23843;51.320;12.340;2023-04-03T01:53:22;3.83;;;1.33;;
38037;SDS011;23843;51.320;12.340;2023-04-03T01:55:48;3.30;;;1.40;;
38037;SDS011;23843;51.320;12.340;2023-04-03T01:58:13;5.70;;;1.50;;
38037;SDS011;23843;51.320;12.340;2023-04-03T02:00:39;4.77;;;1.20;;
38037;SDS011;23843;51.320;12.340;2023-04-03T02:03:04;2.83;;;1.40;;
38037;SDS011;23843;51.320;12.340;2023-04-03T02:05:30;6.20;;;1.40;;
38037;SDS011;23843;51.320;12.340;2023-04-03T02:07:57;3.83;;;1.30;;
38037;SDS011;23843;51.320;12.340;2023-04-03T02:10:22;4.43;;;1.40;;
38037;SDS011;23843;51.320;12.340;2023-04-03T02:12:47;5.17;;;1.40;;
38037;SDS011;23843;51.320;12.340;2023-04-03T02:15:13;3.83;;;1.40;;
38037;SDS011;23843;51.320;12.340;2023-04-03T02:17:39;3.73;;;1.70;;
38037;SDS011;23843;51.320;12.340;2023-04-03T02:20:04;4.17;;;1.40;;
38037;SDS011;23843;51.320;12.340;2023-04-03T02:22:31;4.53;;;1.43;;
38037;SDS011;23843;51.320;12.340;2023-04-03T02:24:58;3.43;;;1.33;;
38037;SDS011;23843;51.320;12.340;2023-04-03T02:27:23;4.53;;;1.47;;
38037;SDS011;23843;51.320;12.340;2023-04-03T02:29:49;4.90;;;1.57;;
38037;SDS011;23843;51.320;12.340;2023-04-03T02:32:14;4.20;;;1.80;;
38037;SDS011;23843;51.320;12.340;2023-04-03T02:34:40;6.07;;;1.97;;
38037;SDS011;23843;51.320;12.340;2023-04-03T02:37:05;4.70;;;1.90;;
38037;SDS011;23843;51.320;12.340;2023-04-03T02:39:30;4.20;;;1.53;;
38037;SDS011;23843;51.320;12.340;2023-04-03T02:41:57;3.70;;;1.13;;
38037;SDS011;23843;51.320;12.340;2023-04-03T02:44:23;6.17;;;1.70;;
38037;SDS011;23843;51.320;12.340;2023-04-03T02:46:49;6.13;;;1.60;;
38037;SDS011;23843;51.320;12.340;2023-04-03T02:49:15;4.60;;;1.40;;
38037;SDS011;23843;51.320;12.340;2023-04-03T02:51:40;4.53;;;1.40;;
38037;SDS011;23843;51.320;12.340;2023-04-03T02:54:06;4.97;;;1.60;;
38037;SDS011;23843;51.320;12.340;2023-04-03T02:56:31;5.60;;;1.70;;
38037;SDS011;23843;51.320;12.340;2023-04-03T02:58:58;5.03;;;1.63;;
38037;SDS011;23843;51.320;12.340;2023-04-03T03:01:24;4.53;;;1.47;;
38037;SDS011;23843;51.320;12.340;2023-04-03T03:03:49;5.87;;;1.33;;
38037;SDS011;23843;51.320;12.340;2023-04-03T03:06:15;4.23;;;1.40;;
38037;SDS011;23843;51.320;12.340;2023-04-03T03:08:42;3.97;;;1.40;;
38037;SDS011;23843;51.320;12.340;2023-04-03T03:11:08;4.53;;;2.27;;
38037;SDS011;23843;51.320;12.340;2023-04-03T03:13:34;4.13;;;1.17;;
38037;SDS011;23843;51.320;12.340;2023-04-03T03:16:01;4.47;;;1.63;;
38037;SDS011;23843;51.320;12.340;2023-04-03T03:18:27;3.03;;;1.30;;
38037;SDS011;23843;51.320;12.340;2023-04-03T03:20:53;2.90;;;1.40;;
38037;SDS011;23843;51.320;12.340;2023-04-03T03:23:20;2.77;;;1.33;;
38037;SDS011;23843;51.320;12.340;2023-04-03T03:25:47;4.17;;;1.37;;
38037;SDS011;23843;51.320;12.340;2023-04-03T03:28:12;3.43;;;1.20;;
38037;SDS011;23843;51.320;12.340;2023-04-03T03:30:38;2.83;;;1.40;;
38037;SDS011;23843;51.320;12.340;2023-04-03T03:33:05;3.57;;;1.30;;
38037;SDS011;23843;51.320;12.340;2023-04-03T03:35:30;2.83;;;1.10;;
38037;SDS011;23843;51.320;12.340;2023-04-03T03:37:56;3.17;;;1.20;;
38037;SDS011;23843;51.320;12.340;2023-04-03T03:40:21;3.07;;;1.23;;
38037;SDS011;23843;51.320;12.340;2023-04-03T03:42:47;4.30;;;1.23;;
38037;SDS011;23843;51.320;12.340;2023-04-03T03:45:12;2.63;;;1.10;;
38037;SDS011;23843;51.320;12.340;2023-04-03T03:47:38;3.87;;;1.63;;
38037;SDS011;23843;51.320;12.340;2023-04-03T03:50:05;3.63;;;1.40;;
38037;SDS011;23843;51.320;12.340;2023-04-03T03:52:32;6.47;;;1.60;;
38037;SDS011;23843;51.320;12.340;2023-04-03T03:54:57;4.93;;;1.20;;
38037;SDS011;23843;51.320;12.340;2023-04-03T03:57:23;3.20;;;1.20;;
38037;SDS011;23843;51.320;12.340;2023-04-03T03:59:48;3.83;;;1.30;;
38037;SDS011;23843;51.320;12.340;2023-04-03T04:02:14;4.57;;;1.23;;
38037;SDS011;23843;51.320;12.340;2023-04-03T04:04:39;2.70;;;1.10;;
38037;SDS011;23843;51.320;12.340;2023-04-03T04:07:06;1.97;;;0.80;;
38037;SDS011;23843;51.320;12.340;2023-04-03T04:09:31;2.97;;;0.90;;
38037;SDS011;23843;51.320;12.340;2023-04-03T04:11:57;3.43;;;1.00;;
38037;SDS011;23843;51.320;12.340;2023-04-03T04:14:22;1.43;;;0.73;;
38037;SDS011;23843;51.320;12.340;2023-04-03T04:16:48;3.63;;;1.10;;
38037;SDS011;23843;51.320;12.340;2023-04-03T04:19:14;2.93;;;1.00;;
38037;SDS011;23843;51.320;12.340;2023-04-03T04:21:39;4.57;;;1.30;;
38037;SDS011;23843;51.320;12.340;2023-04-03T04:24:06;4.07;;;1.50;;
38037;SDS011;23843;51.320;12.340;2023-04-03T04:26:32;4.30;;;1.60;;
38037;SDS011;23843;51.320;12.340;2023-04-03T04:28:58;3.93;;;1.50;;
38037;SDS011;23843;51.320;12.340;2023-04-03T04:31:23;3.50;;;1.70;;
38037;SDS011;23843;51.320;12.340;2023-04-03T04:33:49;4.30;;;1.40;;
38037;SDS011;23843;51.320;12.340;2023-04-03T04:36:14;3.47;;;1.10;;
38037;SDS011;23843;51.320;12.340;2023-04-03T04:38:40;2.80;;;1.57;;
38037;SDS011;23843;51.320;12.340;2023-04-03T04:41:06;7.33;;;3.03;;
38037;SDS011;23843;51.320;12.340;2023-04-03T04:43:32;16.20;;;6.40;;
38037;SDS011;23843;51.320;12.340;2023-04-03T04:46:01;18.33;;;7.20;;
38037;SDS011;23843;51.320;12.340;2023-04-03T04:48:28;15.30;;;7.20;;
38037;SDS011;23843;51.320;12.340;2023-04-03T04:50:54;18.07;;;8.73;;
38037;SDS011;23843;51.320;12.340;2023-04-03T04:53:19;15.77;;;8.40;;
38037;SDS011;23843;51.320;12.340;2023-04-03T04:55:45;15.73;;;8.07;;
38037;SDS011;23843;51.320;12.340;2023-04-03T04:58:12;17.33;;;8.67;;
38037;SDS011;23843;51.320;12.340;2023-04-03T05:00:37;20.27;;;9.50;;
38037;SDS011;23843;51.320;12.340;2023-04-03T05:03:03;35.63;;;14.63;;
38037;SDS011;23843;51.320;12.340;2023-04-03T05:05:28;28.80;;;13.27;;
38037;SDS011;23843;51.320;12.340;2023-04-03T05:07:54;41.63;;;17.07;;
38037;SDS011;23843;51.320;12.340;2023-04-03T05:10:19;30.90;;;14.93;;
38037;SDS011;23843;51.320;12.340;2023-04-03T05:12:45;26.30;;;13.33;;
38037;SDS011;23843;51.320;12.340;2023-04-03T05:15:11;31.40;;;16.00;;
38037;SDS011;23843;51.320;12.340;2023-04-03T05:17:37;32.63;;;15.83;;
38037;SDS011;23843;51.320;12.340;2023-04-03T05:20:03;34.53;;;16.60;;
38037;SDS011;23843;51.320;12.340;2023-04-03T05:22:29;46.37;;;19.63;;
38037;SDS011;23843;51.320;12.340;2023-04-03T05:24:54;36.23;;;18.20;;
38037;SDS011;23843;51.320;12.340;2023-04-03T05:27:20;32.17;;;15.27;;
38037;SDS011;23843;51.320;12.340;2023-04-03T05:29:45;29.67;;;15.57;;
38037;SDS011;23843;51.320;12.340;2023-04-03T05:32:12;22.50;;;12.20;;
38037;SDS011;23843;51.320;12.340;2023-04-03T05:34:37;23.07;;;12.97;;
38037;SDS011;23843;51.320;12.340;2023-04-03T05:37:03;31.27;;;18.53;;
38037;SDS011;23843;51.320;12.340;2023-04-03T05:39:28;38.27;;;21.57;;
38037;SDS011;23843;51.320;12.340;2023-04-03T05:41:54;33.10;;;18.83;;
38037;SDS011;23843;51.320;12.340;2023-04-03T05:44:19;23.90;;;13.63;;
38037;SDS011;23843;51.320;12.340;2023-04-03T05:46:45;32.10;;;16.63;;
38037;SDS011;23843;51.320;12.340;2023-04-03T05:49:11;30.00;;;17.60;;
38037;SDS011;23843;51.320;12.340;2023-04-03T05:51:37;23.57;;;13.10;;
38037;SDS011;23843;51.320;12.340;2023-04-03T05:54:06;41.27;;;21.93;;
38037;SDS011;23843;51.320;12.340;2023-04-03T05:56:35;31.10;;;17.97;;
38037;SDS011;23843;51.320;12.340;2023-04-03T05:59:01;27.17;;;16.13;;
38037;SDS011;23843;51.320;12.340;2023-04-03T06:01:26;27.37;;;16.23;;
38037;SDS011;23843;51.320;12.340;2023-04-03T06:03:52;29.73;;;16.80;;
38037;SDS011;23843;51.320;12.340;2023-04-03T06:06:18;30.10;;;16.70;;
38037;SDS011;23843;51.320;12.340;2023-04-03T06:08:44;29.47;;;16.67;;
38037;SDS011;23843;51.320;12.340;2023-04-03T06:11:09;22.87;;;14.30;;
38037;SDS011;23843;51.320;12.340;2023-04-03T06:13:35;23.37;;;14.07;;
38037;SDS011;23843;51.320;12.340;2023-04-03T06:16:01;17.07;;;11.10;;
38037;SDS011;23843;51.320;12.340;2023-04-03T06:18:26;20.43;;;11.10;;
38037;SDS011;23843;51.320;12.340;2023-04-03T06:20:52;16.87;;;10.33;;
38037;SDS011;23843;51.320;12.340;2023-04-03T06:23:18;16.53;;;10.07;;
38037;SDS011;23843;51.320;12.340;2023-04-03T06:25:44;17.90;;;9.70;;
38037;SDS011;23843;51.320;12.340;2023-04-03T06:28:09;13.77;;;8.63;;
38037;SDS011;23843;51.320;12.340;2023-04-03T06:30:36;19.37;;;10.93;;
38037;SDS011;23843;51.320;12.340;2023-04-03T06:33:02;15.27;;;9.60;;
38037;SDS011;23843;51.320;12.340;2023-04-03T06:35:28;18.63;;;10.53;;
38037;SDS011;23843;51.320;12.340;2023-04-03T06:37:54;13.53;;;9.03;;
38037;SDS011;23843;51.320;12.340;2023-04-03T06:40:21;19.27;;;10.90;;
38037;SDS011;23843;51.320;12.340;2023-04-03T06:42:48;17.43;;;9.23;;
38037;SDS011;23843;51.320;12.340;2023-04-03T06:45:14;12.57;;;8.30;;
38037;SDS011;23843;51.320;12.340;2023-04-03T06:47:40;16.03;;;9.87;;
38037;SDS011;23843;51.320;12.340;2023-04-03T06:50:09;14.57;;;8.70;;
38037;SDS011;23843;51.320;12.340;2023-04-03T06:52:37;17.00;;;9.67;;
38037;SDS011;23843;51.320;12.340;2023-04-03T06:55:03;13.70;;;8.23;;
38037;SDS011;23843;51.320;12.340;2023-04-03T06:57:30;13.53;;;8.23;;
38037;SDS011;23843;51.320;12.340;2023-04-03T06:59:56;13.30;;;7.07;;
38037;SDS011;23843;51.320;12.340;2023-04-03T07:02:22;13.27;;;6.70;;
38037;SDS011;23843;51.320;12.340;2023-04-03T07:04:48;10.00;;;5.87;;
38037;SDS011;23843;51.320;12.340;2023-04-03T07:07:13;7.30;;;4.53;;
38037;SDS011;23843;51.320;12.340;2023-04-03T07:09:39;7.43;;;4.23;;
38037;SDS011;23843;51.320;12.340;2023-04-03T07:12:04;6.60;;;3.03;;
38037;SDS011;23843;51.320;12.340;2023-04-03T07:14:31;4.77;;;2.70;;
38037;SDS011;23843;51.320;12.340;2023-04-03T07:16:57;4.97;;;2.50;;
38037;SDS011;23843;51.320;12.340;2023-04-03T07:19:22;3.90;;;2.40;;
38037;SDS011;23843;51.320;12.340;2023-04-03T07:21:48;5.27;;;2.53;;
38037;SDS011;23843;51.320;12.340;2023-04-03T07:24:13;4.07;;;1.93;;
38037;SDS011;23843;51.320;12.340;2023-04-03T07:26:39;2.50;;;1.43;;
38037;SDS011;23843;51.320;12.340;2023-04-03T07:29:04;9.40;;;1.70;;
38037;SDS011;23843;51.320;12.340;2023-04-03T07:31:31;4.27;;;1.47;;
38037;SDS011;23843;51.320;12.340;2023-04-03T07:33:56;4.47;;;1.60;;
38037;SDS011;23843;51.320;12.340;2023-04-03T07:36:22;4.83;;;1.73;;
38037;SDS011;23843;51.320;12.340;2023-04-03T07:38:48;3.33;;;1.50;;
38037;SDS011;23843;51.320;12.340;2023-04-03T07:41:15;5.00;;;1.53;;
38037;SDS011;23843;51.320;12.340;2023-04-03T07:43:41;3.07;;;1.30;;
38037;SDS011;23843;51.320;12.340;2023-04-03T07:46:07;4.97;;;1.77;;
38037;SDS011;23843;51.320;12.340;2023-04-03T07:48:34;3.00;;;2.10;;
38037;SDS011;23843;51.320;12.340;2023-04-03T07:51:00;4.83;;;1.70;;
38037;SDS011;23843;51.320;12.340;2023-04-03T07:53:26;4.00;;;1.90;;
38037;SDS011;23843;51.320;12.340;2023-04-03T07:55:52;2.57;;;2.00;;
38037;SDS011;23843;51.320;12.340;2023-04-03T07:58:18;4.03;;;2.37;;
38037;SDS011;23843;51.320;12.340;2023-04-03T08:00:43;2.80;;;1.80;;
38037;SDS011;23843;51.320;12.340;2023-04-03T08:03:10;4.77;;;2.73;;
38037;SDS011;23843;51.320;12.340;2023-04-03T08:05:38;4.37;;;2.57;;
38037;SDS011;23843;51.320;12.340;2023-04-03T08:08:04;3.53;;;2.07;;
38037;SDS011;23843;51.320;12.340;2023-04-03T08:10:30;5.67;;;3.20;;
38037;SDS011;23843;51.320;12.340;2023-04-03T08:12:56;5.53;;;2.50;;
38037;SDS011;23843;51.320;12.340;2023-04-03T08:15:21;3.40;;;1.83;;
38037;SDS011;23843;51.320;12.340;2023-04-03T08:17:47;3.03;;;1.75;;
38037;SDS011;23843;51.320;12.340;2023-04-03T08:20:13;2.83;;;1.88;;
38037;SDS011;23843;51.320;12.340;2023-04-03T08:22:40;3.05;;;1.45;;
38037;SDS011;23843;51.320;12.340;2023-04-03T08:25:05;3.75;;;1.77;;
38037;SDS011;23843;51.320;12.340;2023-04-03T08:27:31;2.65;;;1.42;;
38037;SDS011;23843;51.320;12.340;2023-04-03T08:29:57;5.88;;;1.50;;
38037;SDS011;23843;51.320;12.340;2023-04-03T08:32:23;3.55;;;1.60;;
38037;SDS011;23843;51.320;12.340;2023-04-03T08:34:49;3.53;;;2.40;;
38037;SDS011;23843;51.320;12.340;2023-04-03T08:37:14;4.15;;;2.35;;
38037;SDS011;23843;51.320;12.340;2023-04-03T08:39:42;4.10;;;1.98;;
38037;SDS011;23843;51.320;12.340;2023-04-03T08:42:14;5.85;;;3.00;;
38037;SDS011;23843;51.320;12.340;2023-04-03T08:44:47;6.22;;;2.90;;
38037;SDS011;23843;51.320;12.340;2023-04-03T08:47:21;4.63;;;2.55;;
38037;SDS011;23843;51.320;12.340;2023-04-03T08:49:51;3.38;;;1.90;;
38037;SDS011;23843;51.320;12.340;2023-04-03T08:52:22;3.83;;;1.20;;
38037;SDS011;23843;51.320;12.340;2023-04-03T08:54:59;3.72;;;1.80;;
38037;SDS011;23843;51.320;12.340;2023-04-03T08:57:28;4.43;;;2.47;;
38037;SDS011;23843;51.320;12.340;2023-04-03T08:59:55;4.13;;;2.17;;
38037;SDS011;23843;51.320;12.340;2023-04-03T09:02:29;3.10;;;1.58;;
38037;SDS011;23843;51.320;12.340;2023-04-03T09:04:58;2.25;;;1.20;;
38037;SDS011;23843;51.320;12.340;2023-04-03T09:07:27;3.40;;;1.10;;
38037;SDS011;23843;51.320;12.340;2023-04-03T09:10:00;2.30;;;1.53;;
38037;SDS011;23843;51.320;12.340;2023-04-03T09:12:27;6.80;;;1.83;;
38037;SDS011;23843;51.320;12.340;2023-04-03T09:15:00;2.20;;;1.10;;
38037;SDS011;23843;51.320;12.340;2023-04-03T09:17:35;4.13;;;1.10;;
38037;SDS011;23843;51.320;12.340;2023-04-03T09:20:09;3.80;;;1.13;;
38037;SDS011;23843;51.320;12.340;2023-04-03T09:22:42;3.60;;;1.10;;
38037;SDS011;23843;51.320;12.340;2023-04-03T09:25:12;2.03;;;1.00;;
38037;SDS011;23843;51.320;12.340;2023-04-03T09:27:40;1.83;;;1.00;;
38037;SDS011;23843;51.320;12.340;2023-04-03T09:30:06;2.23;;;1.00;;
38037;SDS011;23843;51.320;12.340;2023-04-03T09:32:37;2.53;;;0.80;;
38037;SDS011;23843;51.320;12.340;2023-04-03T09:35:03;3.70;;;1.00;;
38037;SDS011;23843;51.320;12.340;2023-04-03T09:37:41;1.77;;;0.87;;
38037;SDS011;23843;51.320;12.340;2023-04-03T09:42:57;3.80;;;1.30;;
38037;SDS011;23843;51.320;12.340;2023-04-03T09:45:25;3.33;;;1.20;;
38037;SDS011;23843;51.320;12.340;2023-04-03T09:48:04;2.97;;;1.10;;
38037;SDS011;23843;51.320;12.340;2023-04-03T09:50:34;2.43;;;1.13;;
38037;SDS011;23843;51.320;12.340;2023-04-03T09:53:04;2.20;;;1.00;;
38037;SDS011;23843;51.320;12.340;2023-04-03T09:55:32;2.77;;;1.00;;
38037;SDS011;23843;51.320;12.340;2023-04-03T09:58:11;1.37;;;0.73;;
38037;SDS011;23843;51.320;12.340;2023-04-03T10:00:53;1.83;;;1.00;;
38037;SDS011;23843;51.320;12.340;2023-04-03T10:03:23;4.23;;;0.97;;
38037;SDS011;23843;51.320;12.340;2023-04-03T10:05:52;4.37;;;1.23;;
38037;SDS011;23843;51.320;12.340;2023-04-03T10:08:20;4.00;;;1.10;;
38037;SDS011;23843;51.320;12.340;2023-04-03T10:11:05;2.37;;;1.13;;
38037;SDS011;23843;51.320;12.340;2023-04-03T10:13:35;2.03;;;0.90;;
38037;SDS011;23843;51.320;12.340;2023-04-03T10:16:03;1.10;;;0.70;;
38037;SDS011;23843;51.320;12.340;2023-04-03T10:18:37;3.73;;;0.97;;
38037;SDS011;23843;51.320;12.340;2023-04-03T10:21:08;3.63;;;1.23;;
38037;SDS011;23843;51.320;12.340;2023-04-03T10:23:40;2.83;;;1.00;;
38037;SDS011;23843;51.320;12.340;2023-04-03T10:26:12;4.00;;;1.20;;
38037;SDS011;23843;51.320;12.340;2023-04-03T10:28:51;3.80;;;1.00;;
38037;SDS011;23843;51.320;12.340;2023-04-03T10:31:23;2.33;;;1.00;;
38037;SDS011;23843;51.320;12.340;2023-04-03T10:33:56;1.83;;;0.90;;
38037;SDS011;23843;51.320;12.340;2023-04-03T10:36:33;4.03;;;1.10;;
38037;SDS011;23843;51.320;12.340;2023-04-03T10:39:05;2.40;;;1.10;;
38037;SDS011;23843;51.320;12.340;2023-04-03T10:41:44;2.47;;;1.00;;
38037;SDS011;23843;51.320;12.340;2023-04-03T10:44:20;2.80;;;1.50;;
38037;SDS011;23843;51.320;12.340;2023-04-03T10:46:58;2.60;;;1.03;;
38037;SDS011;23843;51.320;12.340;2023-04-03T10:49:33;1.80;;;0.90;;
38037;SDS011;23843;51.320;12.340;2023-04-03T10:52:11;1.93;;;0.90;;
38037;SDS011;23843;51.320;12.340;2023-04-03T10:54:43;2.13;;;1.03;;
38037;SDS011;23843;51.320;12.340;2023-04-03T10:57:15;3.00;;;0.90;;
38037;SDS011;23843;51.320;12.340;2023-04-03T10:59:41;5.47;;;1.40;;
38037;SDS011;23843;51.320;12.340;2023-04-03T11:02:12;4.67;;;1.63;;
38037;SDS011;23843;51.320;12.340;2023-04-03T11:04:42;4.70;;;1.33;;
38037;SDS011;23843;51.320;12.340;2023-04-03T11:07:14;3.00;;;1.13;;
38037;SDS011;23843;51.320;12.340;2023-04-03T11:09:44;5.33;;;1.77;;
38037;SDS011;23843;51.320;12.340;2023-04-03T11:12:12;4.10;;;1.20;;
38037;SDS011;23843;51.320;12.340;2023-04-03T11:14:43;3.87;;;1.10;;
38037;SDS011;23843;51.320;12.340;2023-04-03T11:17:15;1.67;;;0.90;;
38037;SDS011;23843;51.320;12.340;2023-04-03T11:19:49;2.13;;;1.03;;
38037;SDS011;23843;51.320;12.340;2023-04-03T11:22:22;2.03;;;1.03;;
38037;SDS011;23843;51.320;12.340;2023-04-03T11:24:54;3.80;;;1.00;;
38037;SDS011;23843;51.320;12.340;2023-04-03T11:27:30;4.67;;;1.70;;
38037;SDS011;23843;51.320;12.340;2023-04-03T11:30:05;3.40;;;1.03;;
38037;SDS011;23843;51.320;12.340;2023-04-03T11:32:39;1.23;;;1.00;;
38037;SDS011;23843;51.320;12.340;2023-04-03T11:35:19;2.43;;;1.10;;
38037;SDS011;23843;51.320;12.340;2023-04-03T11:37:47;2.67;;;1.20;;
38037;SDS011;23843;51.320;12.340;2023-04-03T11:40:20;2.37;;;1.20;;
38037;SDS011;23843;51.320;12.340;2023-04-03T11:42:51;2.27;;;1.10;;
38037;SDS011;23843;51.320;12.340;2023-04-03T11:45:24;1.43;;;0.67;;
38037;SDS011;23843;51.320;12.340;2023-04-03T11:47:54;4.37;;;1.13;;
38037;SDS011;23843;51.320;12.340;2023-04-03T11:50:30;2.63;;;1.00;;
38037;SDS011;23843;51.320;12.340;2023-04-03T11:53:25;2.23;;;1.10;;
38037;SDS011;23843;51.320;12.340;2023-04-03T11:55:54;1.43;;;0.90;;
38037;SDS011;23843;51.320;12.340;2023-04-03T11:58:26;3.60;;;1.10;;
38037;SDS011;23843;51.320;12.340;2023-04-03T12:04:08;2.23;;;1.23;;
38037;SDS011;23843;51.320;12.340;2023-04-03T12:09:32;2.40;;;0.97;;
38037;SDS011;23843;51.320;12.340;2023-04-03T12:12:00;3.03;;;0.93;;
38037;SDS011;23843;51.320;12.340;2023-04-03T12:14:48;2.47;;;1.00;;
38037;SDS011;23843;51.320;12.340;2023-04-03T12:17:19;2.77;;;1.47;;
38037;SDS011;23843;51.320;12.340;2023-04-03T12:19:47;1.90;;;0.90;;
38037;SDS011;23843;51.320;12.340;2023-04-03T12:22:13;3.07;;;1.20;;
38037;SDS011;23843;51.320;12.340;2023-04-03T12:24:41;2.43;;;1.10;;
38037;SDS011;23843;51.320;12.340;2023-04-03T12:27:20;3.60;;;1.30;;
38037;SDS011;23843;51.320;12.340;2023-04-03T12:29:55;4.33;;;1.53;;
38037;SDS011;23843;51.320;12.340;2023-04-03T12:32:29;2.73;;;1.13;;
38037;SDS011;23843;51.320;12.340;2023-04-03T12:35:10;2.87;;;1.10;;
38037;SDS011;23843;51.320;12.340;2023-04-03T12:37:51;2.10;;;0.90;;
38037;SDS011;23843;51.320;12.340;2023-04-03T12:40:38;1.33;;;0.80;;
38037;SDS011;23843;51.320;12.340;2023-04-03T12:43:17;3.33;;;0.87;;
38037;SDS011;23843;51.320;12.340;2023-04-03T12:45:56;2.73;;;1.20;;
38037;SDS011;23843;51.320;12.340;2023-04-03T12:48:29;1.60;;;1.00;;
38037;SDS011;23843;51.320;12.340;2023-04-03T12:50:56;1.90;;;1.10;;
38037;SDS011;23843;51.320;12.340;2023-04-03T12:53:24;1.43;;;0.90;;
38037;SDS011;23843;51.320;12.340;2023-04-03T12:55:53;2.77;;;0.90;;
38037;SDS011;23843;51.320;12.340;2023-04-03T12:58:21;4.00;;;1.13;;
38037;SDS011;23843;51.320;12.340;2023-04-03T13:00:59;1.53;;;0.87;;
38037;SDS011;23843;51.320;12.340;2023-04-03T13:03:27;3.70;;;1.20;;
38037;SDS011;23843;51.320;12.340;2023-04-03T13:05:54;3.73;;;1.10;;
38037;SDS011;23843;51.320;12.340;2023-04-03T13:08:23;1.77;;;1.20;;
38037;SDS011;23843;51.320;12.340;2023-04-03T13:10:53;2.20;;;1.10;;
38037;SDS011;23843;51.320;12.340;2023-04-03T13:13:23;4.33;;;1.20;;
38037;SDS011;23843;51.320;12.340;2023-04-03T13:15:48;2.80;;;1.10;;
38037;SDS011;23843;51.320;12.340;2023-04-03T13:18:23;1.60;;;1.00;;
38037;SDS011;23843;51.320;12.340;2023-04-03T13:20:53;2.73;;;0.90;;
38037;SDS011;23843;51.320;12.340;2023-04-03T13:23:23;3.63;;;1.23;;
38037;SDS011;23843;51.320;12.340;2023-04-03T13:25:50;2.20;;;1.13;;
38037;SDS011;23843;51.320;12.340;2023-04-03T13:28:17;2.23;;;1.30;;
38037;SDS011;23843;51.320;12.340;2023-04-03T13:30:53;1.50;;;0.70;;
38037;SDS011;23843;51.320;12.340;2023-04-03T13:33:23;2.47;;;1.10;;
38037;SDS011;23843;51.320;12.340;2023-04-03T13:35:54;3.10;;;1.40;;
38037;SDS011;23843;51.320;12.340;2023-04-03T13:38:24;2.30;;;1.07;;
38037;SDS011;23843;51.320;12.340;2023-04-03T13:40:53;1.53;;;0.87;;
38037;SDS011;23843;51.320;12.340;2023-04-03T13:43:21;3.17;;;0.70;;
38037;SDS011;23843;51.320;12.340;2023-04-03T13:45:56;3.13;;;1.10;;
38037;SDS011;23843;51.320;12.340;2023-04-03T13:48:28;3.83;;;0.90;;
38037;SDS011;23843;51.320;12.340;2023-04-03T13:51:01;2.40;;;1.10;;
38037;SDS011;23843;51.320;12.340;2023-04-03T13:53:30;2.87;;;1.03;;
38037;SDS011;23843;51.320;12.340;2023-04-03T13:56:15;1.10;;;0.83;;
38037;SDS011;23843;51.320;12.340;2023-04-03T13:58:52;2.40;;;0.90;;
38037;SDS011;23843;51.320;12.340;2023-04-03T14:01:21;1.30;;;0.80;;
38037;SDS011;23843;51.320;12.340;2023-04-03T14:03:51;1.43;;;0.70;;
38037;SDS011;23843;51.320;12.340;2023-04-03T14:06:20;2.97;;;1.13;;
38037;SDS011;23843;51.320;12.340;2023-04-03T14:08:45;2.73;;;0.80;;
38037;SDS011;23843;51.320;12.340;2023-04-03T14:11:12;2.97;;;1.30;;
38037;SDS011;23843;51.320;12.340;2023-04-03T14:13:39;2.80;;;1.27;;
38037;SDS011;23843;51.320;12.340;2023-04-03T14:16:05;2.63;;;1.17;;
38037;SDS011;23843;51.320;12.340;2023-04-03T14:18:31;2.00;;;1.03;;
38037;SDS011;23843;51.320;12.340;2023-04-03T14:20:57;2.23;;;1.30;;
38037;SDS011;23843;51.320;12.340;2023-04-03T14:23:23;3.73;;;1.30;;
38037;SDS011;23843;51.320;12.340;2023-04-03T14:25:49;3.63;;;1.17;;
38037;SDS011;23843;51.320;12.340;2023-04-03T14:28:15;3.73;;;1.30;;
38037;SDS011;23843;51.320;12.340;2023-04-03T14:30:42;3.10;;;1.10;;
38037;SDS011;23843;51.320;12.340;2023-04-03T14:33:09;3.40;;;1.20;;
38037;SDS011;23843;51.320;12.340;2023-04-03T14:35:37;2.50;;;0.80;;
38037;SDS011;23843;51.320;12.340;2023-04-03T14:38:06;2.37;;;0.90;;
38037;SDS011;23843;51.320;12.340;2023-04-03T14:40:44;4.43;;;1.20;;
38037;SDS011;23843;51.320;12.340;2023-04-03T14:43:10;1.73;;;0.90;;
38037;SDS011;23843;51.320;12.340;2023-04-03T14:45:37;1.70;;;1.00;;